createdAt,value
2023-02-19T00:01:54.786Z,85.76
2023-02-19T00:04:25.802Z,85.91
2023-02-19T00:06:55.216Z,85.87
2023-02-19T00:09:27.083Z,85.90
2023-02-19T00:11:57.948Z,85.94
2023-02-19T00:14:28.891Z,85.81
2023-02-19T00:16:59.931Z,85.82
2023-02-19T00:19:32.123Z,85.70
2023-02-19T00:22:02.961Z,85.77
2023-02-19T00:24:33.834Z,85.64
2023-02-19T00:27:03.206Z,85.64
2023-02-19T00:29:34.413Z,85.68
2023-02-19T00:32:06.039Z,85.63
2023-02-19T00:34:37.197Z,85.70
2023-02-19T00:37:06.575Z,85.77
2023-02-19T00:39:37.793Z,85.79
2023-02-19T00:42:09.119Z,85.93
2023-02-19T00:44:40.284Z,86.07
2023-02-19T00:47:11.253Z,86.24
2023-02-19T00:49:40.712Z,86.42
2023-02-19T00:52:11.802Z,86.59
2023-02-19T00:54:42.955Z,86.74
2023-02-19T00:57:13.958Z,87.15
2023-02-19T00:59:45.134Z,87.47
2023-02-19T01:02:14.503Z,87.91
2023-02-19T01:04:45.608Z,88.13
2023-02-19T01:07:16.770Z,88.36
2023-02-19T01:09:46.168Z,88.30
2023-02-19T01:12:17.201Z,88.25
2023-02-19T01:14:48.278Z,88.19
2023-02-19T01:17:19.452Z,88.24
2023-02-19T01:19:50.629Z,88.36
2023-02-19T01:22:21.647Z,88.44
2023-02-19T01:24:52.752Z,88.56
2023-02-19T01:27:22.222Z,88.63
2023-02-19T01:29:53.188Z,88.74
2023-02-19T01:32:22.644Z,88.64
2023-02-19T01:34:53.712Z,88.53
2023-02-19T01:37:23.254Z,88.54
2023-02-19T01:39:54.206Z,88.61
2023-02-19T01:42:25.379Z,88.45
2023-02-19T01:45:14.118Z,88.41
2023-02-19T01:47:45.427Z,88.39
2023-02-19T01:50:17.229Z,88.37
2023-02-19T01:52:48.778Z,88.58
2023-02-19T01:55:19.825Z,88.93
2023-02-19T01:57:51.888Z,89.16
2023-02-19T02:00:24.900Z,89.14
2023-02-19T02:02:58.863Z,89.23
2023-02-19T02:05:41.387Z,88.98
2023-02-19T02:08:30.885Z,88.85
2023-02-19T02:11:02.168Z,88.86
2023-02-19T02:13:34.187Z,88.69
2023-02-19T02:16:23.341Z,88.86
2023-02-19T02:19:03.809Z,88.67
2023-02-19T02:22:00.190Z,88.84
2023-02-19T02:25:06.475Z,88.86
2023-02-19T02:27:55.340Z,89.01
2023-02-19T02:30:33.521Z,89.27
2023-02-19T02:33:15.015Z,89.40
2023-02-19T02:35:50.929Z,89.46
2023-02-19T02:38:25.064Z,89.53
2023-02-19T02:40:58.012Z,89.60
2023-02-19T02:43:29.357Z,89.61
2023-02-19T02:46:00.749Z,89.54
2023-02-19T02:48:39.597Z,89.60
2023-02-19T02:51:15.441Z,89.50
2023-02-19T02:54:10.664Z,89.33
2023-02-19T02:56:42.863Z,89.31
2023-02-19T02:59:16.571Z,89.31
2023-02-19T03:02:10.230Z,89.31
2023-02-19T03:05:09.497Z,89.32
2023-02-19T03:07:45.201Z,89.21
2023-02-19T03:10:20.680Z,89.26
2023-02-19T03:13:13.705Z,89.24
2023-02-19T03:16:09.343Z,89.25
2023-02-19T03:19:01.043Z,89.31
2023-02-19T03:21:36.130Z,89.38
2023-02-19T03:24:28.862Z,89.40
2023-02-19T03:27:03.761Z,89.64
2023-02-19T03:29:36.693Z,89.69
2023-02-19T03:32:12.869Z,89.86
2023-02-19T03:34:49.297Z,89.95
2023-02-19T03:37:26.193Z,90.20
2023-02-19T03:39:58.272Z,90.19
2023-02-19T03:42:38.136Z,90.23
2023-02-19T03:45:30.531Z,90.37
2023-02-19T03:48:16.402Z,90.40
2023-02-19T03:50:51.565Z,90.37
2023-02-19T03:53:29.791Z,90.41
2023-02-19T03:56:11.004Z,90.57
2023-02-19T03:58:49.738Z,90.60
2023-02-19T04:01:28.119Z,90.54
2023-02-19T04:04:04.888Z,90.56
2023-02-19T04:06:38.438Z,90.59
2023-02-19T04:09:12.680Z,90.74
2023-02-19T04:11:44.002Z,90.86
2023-02-19T04:14:21.629Z,90.95
2023-02-19T04:16:56.593Z,90.99
2023-02-19T04:19:30.380Z,91.16
2023-02-19T04:22:02.712Z,91.22
2023-02-19T04:24:37.541Z,91.18
2023-02-19T04:27:10.258Z,91.31
2023-02-19T04:29:41.820Z,91.51
2023-02-19T04:32:14.401Z,91.52
2023-02-19T04:34:45.293Z,91.61
2023-02-19T04:37:16.303Z,91.76
2023-02-19T04:39:45.808Z,91.69
2023-02-19T04:42:16.978Z,91.75
2023-02-19T04:44:48.551Z,91.83
2023-02-19T04:47:19.792Z,92.04
2023-02-19T04:49:50.893Z,92.08
2023-02-19T04:52:21.986Z,92.11
2023-02-19T04:54:52.929Z,92.14
2023-02-19T04:57:24.012Z,92.12
2023-02-19T04:59:54.886Z,92.16
2023-02-19T05:02:26.245Z,92.05
2023-02-19T05:04:57.423Z,92.10
2023-02-19T05:07:28.397Z,92.13
2023-02-19T05:09:59.854Z,92.21
2023-02-19T05:12:32.408Z,92.21
2023-02-19T05:15:03.636Z,92.16
2023-02-19T05:17:35.692Z,92.25
2023-02-19T05:20:08.045Z,92.34
2023-02-19T05:22:39.137Z,92.33
2023-02-19T05:25:10.441Z,92.59
2023-02-19T05:27:41.674Z,92.54
2023-02-19T05:30:12.397Z,92.58
2023-02-19T05:32:43.324Z,92.53
2023-02-19T05:35:12.761Z,92.48
2023-02-19T05:37:43.905Z,92.58
2023-02-19T05:40:15.095Z,92.64
2023-02-19T05:42:46.182Z,92.61
2023-02-19T05:45:17.373Z,92.73
2023-02-19T05:47:46.953Z,92.66
2023-02-19T05:50:18.486Z,92.80
2023-02-19T05:52:49.488Z,92.77
2023-02-19T05:55:20.773Z,92.73
2023-02-19T05:57:51.983Z,92.76
2023-02-19T06:00:27.037Z,92.86
2023-02-19T06:02:58.188Z,92.72
2023-02-19T06:05:29.193Z,92.79
2023-02-19T06:08:00.238Z,92.82
2023-02-19T06:10:31.119Z,92.91
2023-02-19T06:13:00.604Z,93.11
2023-02-19T06:15:31.517Z,93.10
2023-02-19T06:18:02.726Z,93.16
2023-02-19T06:20:34.178Z,93.07
2023-02-19T06:23:05.421Z,93.18
2023-02-19T06:25:34.926Z,93.24
2023-02-19T06:28:06.025Z,93.24
2023-02-19T06:30:35.466Z,93.38
2023-02-19T06:33:06.476Z,93.40
2023-02-19T06:35:37.646Z,93.49
2023-02-19T06:38:07.047Z,93.62
2023-02-19T06:40:38.036Z,93.67
2023-02-19T06:43:08.768Z,93.62
2023-02-19T06:45:39.944Z,93.64
2023-02-19T06:48:10.932Z,93.66
2023-02-19T06:50:42.194Z,93.67
2023-02-19T06:53:13.386Z,93.67
2023-02-19T06:55:42.875Z,93.77
2023-02-19T06:58:13.687Z,93.83
2023-02-19T07:00:44.780Z,93.78
2023-02-19T07:03:14.167Z,93.89
2023-02-19T07:05:45.155Z,93.79
2023-02-19T07:08:17.384Z,93.77
2023-02-19T07:10:54.917Z,93.64
2023-02-19T07:13:24.619Z,93.63
2023-02-19T07:16:01.148Z,93.63
2023-02-19T07:18:33.228Z,93.59
2023-02-19T07:21:07.444Z,93.56
2023-02-19T07:23:38.925Z,93.54
2023-02-19T07:26:11.598Z,93.25
2023-02-19T07:28:43.037Z,93.10
2023-02-19T07:31:12.973Z,92.60
2023-02-19T07:33:45.659Z,91.93
2023-02-19T07:36:18.779Z,91.64
2023-02-19T07:38:55.333Z,91.17
2023-02-19T07:41:28.135Z,91.17
2023-02-19T07:43:59.390Z,91.35
2023-02-19T07:46:30.705Z,91.62
2023-02-19T07:49:02.370Z,91.79
2023-02-19T07:51:33.580Z,91.75
2023-02-19T07:54:04.890Z,91.60
2023-02-19T07:56:34.302Z,91.27
2023-02-19T07:59:05.275Z,91.03
2023-02-19T08:01:53.966Z,90.65
2023-02-19T08:04:25.089Z,90.76
2023-02-19T08:06:57.053Z,90.86
2023-02-19T08:09:28.222Z,91.09
2023-02-19T08:12:16.583Z,91.10
2023-02-19T08:14:47.721Z,91.16
2023-02-19T08:17:18.880Z,90.70
2023-02-19T08:19:49.876Z,90.26
2023-02-19T08:22:20.835Z,89.92
2023-02-19T08:24:52.365Z,89.58
2023-02-19T08:27:23.564Z,89.15
2023-02-19T08:29:54.572Z,88.88
2023-02-19T08:32:25.851Z,88.73
2023-02-19T08:34:56.978Z,88.67
2023-02-19T08:37:26.444Z,88.29
2023-02-19T08:39:57.490Z,88.46
2023-02-19T08:42:26.878Z,88.43
2023-02-19T08:44:57.966Z,88.25
2023-02-19T08:47:27.260Z,88.06
2023-02-19T08:49:58.378Z,88.37
2023-02-19T08:52:29.337Z,88.32
2023-02-19T08:55:01.252Z,88.48
2023-02-19T08:57:32.732Z,88.75
2023-02-19T09:00:04.621Z,88.56
2023-02-19T09:02:35.603Z,88.24
2023-02-19T09:05:07.759Z,88.12
2023-02-19T09:07:39.075Z,88.14
2023-02-19T09:10:11.302Z,88.13
2023-02-19T09:12:42.538Z,88.12
2023-02-19T09:15:11.941Z,88.32
2023-02-19T09:17:43.415Z,88.30
2023-02-19T09:20:15.190Z,88.37
2023-02-19T09:22:46.214Z,88.16
2023-02-19T09:25:17.984Z,87.91
2023-02-19T09:27:48.950Z,87.72
2023-02-19T09:30:20.343Z,87.35
2023-02-19T09:32:51.890Z,87.38
2023-02-19T09:35:22.796Z,87.44
2023-02-19T09:37:52.475Z,87.50
2023-02-19T09:40:23.623Z,87.25
2023-02-19T09:42:54.694Z,87.03
2023-02-19T09:45:27.447Z,86.95
2023-02-19T09:48:00.027Z,86.84
2023-02-19T09:50:39.191Z,86.92
2023-02-19T09:53:17.058Z,86.19
2023-02-19T09:55:48.189Z,86.33
2023-02-19T09:58:27.363Z,85.76
2023-02-19T10:01:01.262Z,86.18
2023-02-19T10:03:35.448Z,86.48
2023-02-19T10:06:14.108Z,85.83
2023-02-19T10:08:46.631Z,85.28
2023-02-19T10:11:19.326Z,85.70
2023-02-19T10:13:54.476Z,85.11
2023-02-19T10:16:29.349Z,84.41
2023-02-19T10:19:00.440Z,84.08
2023-02-19T10:21:31.550Z,83.84
2023-02-19T10:24:06.533Z,83.00
2023-02-19T10:26:37.854Z,82.80
2023-02-19T10:29:10.768Z,82.56
2023-02-19T10:31:42.030Z,83.45
2023-02-19T10:34:22.334Z,82.98
2023-02-19T10:36:54.162Z,81.66
2023-02-19T10:39:43.497Z,80.92
2023-02-19T10:42:25.647Z,80.87
2023-02-19T10:45:01.974Z,81.04
2023-02-19T10:47:36.007Z,79.57
2023-02-19T10:50:08.911Z,79.35
2023-02-19T10:52:40.120Z,79.91
2023-02-19T10:55:26.180Z,80.45
2023-02-19T10:57:57.737Z,80.85
2023-02-19T11:00:30.821Z,79.91
2023-02-19T11:03:21.403Z,80.15
2023-02-19T11:06:01.213Z,80.02
2023-02-19T11:08:47.004Z,79.42
2023-02-19T11:11:37.067Z,79.14
2023-02-19T11:14:19.458Z,79.64
2023-02-19T11:16:53.092Z,79.76
2023-02-19T11:19:33.005Z,80.60
2023-02-19T11:22:19.368Z,78.95
2023-02-19T11:24:57.260Z,77.26
2023-02-19T11:27:29.676Z,77.28
2023-02-19T11:30:36.054Z,75.63
2023-02-19T11:33:25.580Z,74.60
2023-02-19T11:36:01.965Z,74.70
2023-02-19T11:38:33.718Z,75.07
2023-02-19T11:41:12.258Z,75.86
2023-02-19T11:43:57.579Z,77.06
2023-02-19T11:46:41.663Z,74.20
2023-02-19T11:49:24.915Z,73.05
2023-02-19T11:52:12.609Z,72.44
2023-02-19T11:54:52.099Z,72.92
2023-02-19T11:57:38.397Z,72.86
2023-02-19T12:00:30.309Z,73.10
2023-02-19T12:03:27.932Z,74.26
2023-02-19T12:06:20.589Z,72.81
2023-02-19T12:09:11.636Z,71.88
2023-02-19T12:11:59.578Z,71.97
2023-02-19T12:14:58.734Z,72.20
2023-02-19T12:17:47.864Z,72.52
2023-02-19T12:20:31.709Z,71.67
2023-02-19T12:23:24.016Z,71.48
2023-02-19T12:26:04.082Z,71.16
2023-02-19T12:29:01.603Z,69.21
2023-02-19T12:32:02.446Z,69.98
2023-02-19T12:34:46.133Z,69.11
2023-02-19T12:37:22.898Z,69.23
2023-02-19T12:40:04.894Z,69.57
2023-02-19T12:42:51.274Z,68.72
2023-02-19T12:45:31.260Z,67.23
2023-02-19T12:48:07.441Z,67.07
2023-02-19T12:50:41.177Z,68.07
2023-02-19T12:53:22.848Z,66.95
2023-02-19T12:55:55.582Z,66.50
2023-02-19T12:58:33.523Z,67.15
2023-02-19T13:01:05.223Z,67.35
2023-02-19T13:03:40.561Z,67.55
2023-02-19T13:06:22.471Z,68.87
2023-02-19T13:09:07.344Z,68.97
2023-02-19T13:11:44.068Z,67.58
2023-02-19T13:14:22.707Z,67.07
2023-02-19T13:16:58.492Z,68.02
2023-02-19T13:19:32.051Z,66.40
2023-02-19T13:22:35.204Z,67.21
2023-02-19T13:25:08.194Z,67.82
2023-02-19T13:28:00.493Z,67.48
2023-02-19T13:30:47.261Z,68.15
2023-02-19T13:33:34.324Z,68.43
2023-02-19T13:36:21.445Z,68.08
2023-02-19T13:38:57.372Z,66.73
2023-02-19T13:41:33.432Z,66.80
2023-02-19T13:44:08.242Z,65.52
2023-02-19T13:46:43.109Z,66.65
2023-02-19T13:49:49.864Z,66.65
2023-02-19T13:52:42.074Z,65.49
2023-02-19T13:55:49.941Z,65.35
2023-02-19T13:58:55.940Z,64.06
2023-02-19T14:02:12.778Z,64.83
2023-02-19T14:04:52.850Z,64.56
2023-02-19T14:07:36.977Z,63.92
2023-02-19T14:10:15.522Z,64.78
2023-02-19T14:12:46.734Z,64.41
2023-02-19T14:15:45.247Z,64.37
2023-02-19T14:18:43.524Z,63.98
2023-02-19T14:21:25.815Z,63.55
2023-02-19T14:24:00.209Z,64.08
2023-02-19T14:26:35.207Z,63.56
2023-02-19T14:29:08.265Z,62.96
2023-02-19T14:31:41.196Z,63.38
2023-02-19T14:34:22.559Z,63.49
2023-02-19T14:36:58.296Z,63.85
2023-02-19T14:39:33.408Z,63.96
2023-02-19T14:42:06.888Z,64.10
2023-02-19T14:44:47.571Z,64.48
2023-02-19T14:47:22.565Z,65.49
2023-02-19T14:49:56.500Z,65.22
2023-02-19T14:52:32.498Z,65.30
2023-02-19T14:55:08.095Z,64.91
2023-02-19T14:57:43.256Z,64.60
2023-02-19T15:00:27.129Z,65.29
2023-02-19T15:03:00.179Z,64.61
2023-02-19T15:05:33.152Z,65.12
2023-02-19T15:08:08.808Z,65.16
2023-02-19T15:10:43.347Z,65.86
2023-02-19T15:13:20.777Z,65.73
2023-02-19T15:15:53.054Z,64.77
2023-02-19T15:18:26.423Z,65.39
2023-02-19T15:21:04.747Z,64.53
2023-02-19T15:23:37.377Z,63.18
2023-02-19T15:26:17.254Z,63.99
2023-02-19T15:28:48.527Z,63.75
2023-02-19T15:31:20.014Z,62.58
2023-02-19T15:33:55.525Z,63.31
2023-02-19T15:36:31.091Z,64.32
2023-02-19T15:39:03.968Z,62.92
2023-02-19T15:41:37.250Z,63.19
2023-02-19T15:44:28.261Z,64.12
2023-02-19T15:47:01.124Z,64.19
2023-02-19T15:49:40.893Z,64.66
2023-02-19T15:52:18.269Z,65.25
2023-02-19T15:54:54.448Z,65.56
2023-02-19T15:57:30.356Z,64.84
2023-02-19T16:00:04.254Z,65.11
2023-02-19T16:02:36.185Z,65.93
2023-02-19T16:05:17.980Z,65.62
2023-02-19T16:07:49.343Z,65.77
2023-02-19T16:10:23.860Z,65.62
2023-02-19T16:13:03.592Z,65.30
2023-02-19T16:15:35.650Z,65.54
2023-02-19T16:18:07.573Z,65.36
2023-02-19T16:20:38.852Z,65.18
2023-02-19T16:23:18.708Z,64.96
2023-02-19T16:25:50.325Z,64.76
2023-02-19T16:28:25.895Z,64.17
2023-02-19T16:31:04.461Z,64.97
2023-02-19T16:33:43.576Z,64.88
2023-02-19T16:36:35.715Z,65.37
2023-02-19T16:39:26.400Z,65.75
2023-02-19T16:42:20.707Z,66.10
2023-02-19T16:44:51.644Z,66.46
2023-02-19T16:47:38.364Z,67.36
2023-02-19T16:50:16.604Z,67.73
2023-02-19T16:52:58.314Z,67.91
2023-02-19T16:55:30.314Z,68.23
2023-02-19T16:58:01.330Z,68.85
2023-02-19T17:00:32.191Z,69.87
2023-02-19T17:03:09.203Z,70.45
2023-02-19T17:05:41.429Z,70.65
2023-02-19T17:08:33.892Z,71.03
2023-02-19T17:11:06.936Z,71.72
2023-02-19T17:13:38.276Z,72.34
2023-02-19T17:16:07.914Z,72.58
2023-02-19T17:18:39.263Z,72.97
2023-02-19T17:21:17.482Z,73.17
2023-02-19T17:23:48.963Z,73.57
2023-02-19T17:26:26.019Z,74.34
2023-02-19T17:28:58.799Z,74.59
2023-02-19T17:31:30.654Z,74.79
2023-02-19T17:34:01.690Z,74.96
2023-02-19T17:36:32.515Z,74.97
2023-02-19T17:39:07.091Z,75.43
2023-02-19T17:41:38.498Z,75.79
2023-02-19T17:44:09.759Z,76.06
2023-02-19T17:46:41.621Z,76.30
2023-02-19T17:49:15.442Z,76.57
2023-02-19T17:51:47.058Z,76.65
2023-02-19T17:54:18.020Z,76.92
2023-02-19T17:56:49.579Z,77.17
2023-02-19T17:59:19.280Z,77.03
2023-02-19T18:01:50.599Z,77.07
2023-02-19T18:04:21.837Z,77.35
2023-02-19T18:06:53.729Z,77.25
2023-02-19T18:09:24.767Z,77.54
2023-02-19T18:11:56.014Z,77.87
2023-02-19T18:14:27.569Z,77.95
2023-02-19T18:16:57.254Z,78.19
2023-02-19T18:19:28.299Z,78.40
2023-02-19T18:21:59.398Z,78.63
2023-02-19T18:24:30.902Z,78.78
2023-02-19T18:27:02.641Z,79.03
2023-02-19T18:29:35.066Z,78.99
2023-02-19T18:32:06.997Z,79.09
2023-02-19T18:34:38.436Z,79.33
2023-02-19T18:37:07.992Z,79.50
2023-02-19T18:39:38.986Z,79.77
2023-02-19T18:42:08.842Z,79.94
2023-02-19T18:44:40.250Z,79.98
2023-02-19T18:47:12.644Z,80.11
2023-02-19T18:49:48.203Z,80.19
2023-02-19T18:52:21.943Z,80.07
2023-02-19T18:54:54.205Z,80.07
2023-02-19T18:57:26.698Z,79.94
2023-02-19T18:59:57.809Z,80.05
2023-02-19T19:02:36.450Z,80.35
2023-02-19T19:05:14.219Z,80.27
2023-02-19T19:07:45.583Z,80.29
2023-02-19T19:10:16.914Z,80.25
2023-02-19T19:12:48.599Z,80.03
2023-02-19T19:15:19.868Z,79.97
2023-02-19T19:17:51.093Z,79.86
2023-02-19T19:20:24.190Z,79.80
2023-02-19T19:22:55.896Z,79.62
2023-02-19T19:25:27.269Z,79.32
2023-02-19T19:27:58.857Z,79.27
2023-02-19T19:30:30.644Z,79.28
2023-02-19T19:33:03.586Z,79.21
2023-02-19T19:35:34.491Z,79.06
2023-02-19T19:38:05.641Z,78.94
2023-02-19T19:40:36.766Z,79.00
2023-02-19T19:43:07.777Z,78.93
2023-02-19T19:45:39.357Z,78.94
2023-02-19T19:48:10.672Z,78.89
2023-02-19T19:50:41.766Z,78.91
2023-02-19T19:53:12.829Z,78.91
2023-02-19T19:55:43.915Z,78.94
2023-02-19T19:58:16.981Z,79.09
2023-02-19T20:00:48.412Z,79.09
2023-02-19T20:03:19.848Z,79.24
2023-02-19T20:05:51.620Z,79.12
2023-02-19T20:08:23.248Z,79.09
2023-02-19T20:10:54.599Z,79.05
2023-02-19T20:13:26.493Z,79.09
2023-02-19T20:15:57.889Z,79.26
2023-02-19T20:18:30.582Z,79.40
2023-02-19T20:21:03.657Z,79.53
2023-02-19T20:23:34.770Z,79.65
2023-02-19T20:26:05.826Z,79.97
2023-02-19T20:28:36.951Z,79.89
2023-02-19T20:31:09.426Z,80.06
2023-02-19T20:33:40.613Z,80.19
2023-02-19T20:36:12.189Z,80.28
2023-02-19T20:38:43.712Z,80.37
2023-02-19T20:41:15.267Z,80.48
2023-02-19T20:43:44.907Z,80.64
2023-02-19T20:46:16.010Z,80.59
2023-02-19T20:48:47.581Z,80.58
2023-02-19T20:51:16.933Z,80.73
2023-02-19T20:53:48.621Z,80.68
2023-02-19T20:56:19.607Z,80.82
2023-02-19T20:58:50.903Z,80.85
2023-02-19T21:01:28.594Z,81.00
2023-02-19T21:03:58.197Z,81.06
2023-02-19T21:06:29.218Z,81.02
2023-02-19T21:09:00.673Z,81.04
2023-02-19T21:11:31.923Z,81.10
2023-02-19T21:14:03.081Z,81.07
2023-02-19T21:16:34.707Z,81.06
2023-02-19T21:19:06.101Z,81.10
2023-02-19T21:21:35.614Z,81.20
2023-02-19T21:24:08.101Z,81.12
2023-02-19T21:26:41.950Z,81.03
2023-02-19T21:29:16.490Z,80.97
2023-02-19T21:31:49.691Z,81.02
2023-02-19T21:34:22.533Z,81.09
2023-02-19T21:36:54.362Z,81.31
2023-02-19T21:39:31.303Z,81.41
2023-02-19T21:42:02.623Z,81.49
2023-02-19T21:44:33.991Z,81.67
2023-02-19T21:47:03.527Z,81.71
2023-02-19T21:49:34.678Z,81.81
2023-02-19T21:52:05.858Z,81.79
2023-02-19T21:54:37.159Z,82.16
2023-02-19T21:57:06.848Z,82.21
2023-02-19T21:59:37.890Z,82.12
2023-02-19T22:02:09.961Z,82.28
2023-02-19T22:04:41.296Z,82.42
2023-02-19T22:07:12.295Z,82.54
2023-02-19T22:09:43.283Z,82.68
2023-02-19T22:12:14.322Z,82.69
2023-02-19T22:14:46.049Z,82.70
2023-02-19T22:17:15.481Z,82.83
2023-02-19T22:19:46.683Z,82.93
2023-02-19T22:22:18.773Z,83.05
2023-02-19T22:24:49.920Z,83.11
2023-02-19T22:27:21.112Z,83.05
2023-02-19T22:29:52.209Z,83.02
2023-02-19T22:32:23.274Z,83.05
2023-02-19T22:34:54.383Z,83.11
2023-02-19T22:37:25.547Z,83.14
2023-02-19T22:39:55.270Z,83.15
2023-02-19T22:42:29.415Z,83.08
2023-02-19T22:45:00.837Z,83.13
2023-02-19T22:47:32.185Z,83.15
2023-02-19T22:50:03.399Z,83.17
2023-02-19T22:52:34.374Z,83.21
2023-02-19T22:55:05.512Z,83.19
2023-02-19T22:57:36.659Z,83.20
2023-02-19T23:00:08.930Z,83.19
2023-02-19T23:02:41.248Z,83.28
2023-02-19T23:05:12.403Z,83.33
2023-02-19T23:07:46.882Z,83.28
2023-02-19T23:10:18.187Z,83.41
2023-02-19T23:12:50.633Z,83.39
2023-02-19T23:15:21.679Z,83.53
2023-02-19T23:17:53.322Z,83.45
2023-02-19T23:20:24.295Z,83.44
2023-02-19T23:22:55.358Z,83.35
2023-02-19T23:25:26.810Z,83.46
2023-02-19T23:27:58.637Z,83.36
2023-02-19T23:30:30.044Z,83.36
2023-02-19T23:32:59.651Z,83.19
2023-02-19T23:35:30.945Z,83.50
2023-02-19T23:38:01.984Z,83.64
2023-02-19T23:40:33.128Z,83.77
2023-02-19T23:43:04.322Z,83.85
2023-02-19T23:45:35.466Z,83.79
2023-02-19T23:48:06.618Z,84.08
2023-02-19T23:50:37.752Z,84.03
2023-02-19T23:53:08.762Z,84.12
2023-02-19T23:55:39.765Z,84.21
2023-02-19T23:58:10.843Z,84.14
